TAF LFBA
METAR LFBA
LFBA 080300Z AUTO 23006KT 200V270 6000 RA BKN034 OVC041 08/07 Q1005=
LFBA 080230Z AUTO 24006KT 9999 BKN044/// BKN056/// BKN070/// ///TCU 08/06 Q1005=
LFBA 080200Z AUTO 25011KT 220V280 9999 -RA FEW036/// BKN046/// BKN054/// ///TCU 09/07 Q1005=
LFBA 080130Z AUTO VRB03KT 9999 -RA FEW049 BKN070 OVC088 09/07 Q1005=
LFBA 080100Z AUTO 23005KT 190V260 9999 FEW038/// BKN072/// OVC090/// ///TCU 09/07 Q1005=
WC LFBA
WS LFBA
WV LFBA